sensor_id;sensor_type;location;lat;lon;timestamp;P1;durP1;ratioP1;P2;durP2;ratioP2
52744;SDS011;38637;49.984;20.426;2023-09-07T00:01:50;10.97;;;5.07;;
52744;SDS011;38637;49.984;20.426;2023-09-07T00:04:18;6.28;;;4.75;;
52744;SDS011;38637;49.984;20.426;2023-09-07T00:06:47;7.05;;;4.32;;
52744;SDS011;38637;49.984;20.426;2023-09-07T00:09:14;5.35;;;3.88;;
52744;SDS011;38637;49.984;20.426;2023-09-07T00:11:41;5.22;;;4.72;;
52744;SDS011;38637;49.984;20.426;2023-09-07T00:14:06;5.10;;;3.53;;
52744;SDS011;38637;49.984;20.426;2023-09-07T00:16:32;3.53;;;3.22;;
52744;SDS011;38637;49.984;20.426;2023-09-07T00:19:00;3.72;;;3.33;;
52744;SDS011;38637;49.984;20.426;2023-09-07T00:21:25;4.53;;;4.10;;
52744;SDS011;38637;49.984;20.426;2023-09-07T00:23:51;5.07;;;4.60;;
52744;SDS011;38637;49.984;20.426;2023-09-07T00:26:16;5.30;;;4.60;;
52744;SDS011;38637;49.984;20.426;2023-09-07T00:28:41;4.90;;;4.50;;
52744;SDS011;38637;49.984;20.426;2023-09-07T00:31:06;4.60;;;4.13;;
52744;SDS011;38637;49.984;20.426;2023-09-07T00:33:32;6.83;;;6.13;;
52744;SDS011;38637;49.984;20.426;2023-09-07T00:35:57;7.63;;;6.17;;
52744;SDS011;38637;49.984;20.426;2023-09-07T00:38:22;6.77;;;5.20;;
52744;SDS011;38637;49.984;20.426;2023-09-07T00:40:48;5.97;;;5.03;;
52744;SDS011;38637;49.984;20.426;2023-09-07T00:43:13;6.63;;;5.30;;
52744;SDS011;38637;49.984;20.426;2023-09-07T00:45:39;11.43;;;5.60;;
52744;SDS011;38637;49.984;20.426;2023-09-07T00:48:05;4.90;;;4.20;;
52744;SDS011;38637;49.984;20.426;2023-09-07T00:50:30;4.20;;;3.90;;
52744;SDS011;38637;49.984;20.426;2023-09-07T00:52:56;6.73;;;4.93;;
52744;SDS011;38637;49.984;20.426;2023-09-07T00:55:24;6.07;;;3.58;;
52744;SDS011;38637;49.984;20.426;2023-09-07T00:57:50;5.83;;;4.77;;
52744;SDS011;38637;49.984;20.426;2023-09-07T01:00:15;6.10;;;4.20;;
52744;SDS011;38637;49.984;20.426;2023-09-07T01:02:40;7.23;;;5.50;;
52744;SDS011;38637;49.984;20.426;2023-09-07T01:05:09;7.10;;;4.22;;
52744;SDS011;38637;49.984;20.426;2023-09-07T01:07:37;4.60;;;3.72;;
52744;SDS011;38637;49.984;20.426;2023-09-07T01:10:08;5.75;;;4.38;;
52744;SDS011;38637;49.984;20.426;2023-09-07T01:12:33;4.70;;;4.27;;
52744;SDS011;38637;49.984;20.426;2023-09-07T01:14:58;5.10;;;4.67;;
52744;SDS011;38637;49.984;20.426;2023-09-07T01:17:24;4.97;;;4.30;;
52744;SDS011;38637;49.984;20.426;2023-09-07T01:19:50;4.30;;;3.90;;
52744;SDS011;38637;49.984;20.426;2023-09-07T01:22:20;3.28;;;2.97;;
52744;SDS011;38637;49.984;20.426;2023-09-07T01:24:50;3.05;;;2.22;;
52744;SDS011;38637;49.984;20.426;2023-09-07T01:27:17;5.80;;;2.53;;
52744;SDS011;38637;49.984;20.426;2023-09-07T01:29:43;3.40;;;3.20;;
52744;SDS011;38637;49.984;20.426;2023-09-07T01:32:08;3.13;;;2.83;;
52744;SDS011;38637;49.984;20.426;2023-09-07T01:34:37;4.57;;;3.03;;
52744;SDS011;38637;49.984;20.426;2023-09-07T01:39:28;6.60;;;3.70;;
52744;SDS011;38637;49.984;20.426;2023-09-07T01:41:53;4.43;;;4.00;;
52744;SDS011;38637;49.984;20.426;2023-09-07T01:44:19;4.50;;;4.10;;
52744;SDS011;38637;49.984;20.426;2023-09-07T01:46:44;3.90;;;3.50;;
52744;SDS011;38637;49.984;20.426;2023-09-07T01:49:10;3.27;;;3.07;;
52744;SDS011;38637;49.984;20.426;2023-09-07T01:51:35;4.30;;;3.30;;
52744;SDS011;38637;49.984;20.426;2023-09-07T01:54:00;8.13;;;5.60;;
52744;SDS011;38637;49.984;20.426;2023-09-07T01:56:25;6.50;;;5.40;;
52744;SDS011;38637;49.984;20.426;2023-09-07T01:58:51;6.33;;;4.77;;
52744;SDS011;38637;49.984;20.426;2023-09-07T02:01:20;7.10;;;5.37;;
52744;SDS011;38637;49.984;20.426;2023-09-07T02:03:46;6.32;;;5.05;;
52744;SDS011;38637;49.984;20.426;2023-09-07T02:08:38;4.97;;;4.03;;
52744;SDS011;38637;49.984;20.426;2023-09-07T02:11:05;5.63;;;3.70;;
52744;SDS011;38637;49.984;20.426;2023-09-07T02:15:55;3.50;;;3.20;;
52744;SDS011;38637;49.984;20.426;2023-09-07T02:18:21;3.43;;;3.13;;
52744;SDS011;38637;49.984;20.426;2023-09-07T02:20:46;5.30;;;3.07;;
52744;SDS011;38637;49.984;20.426;2023-09-07T02:23:11;5.10;;;2.97;;
52744;SDS011;38637;49.984;20.426;2023-09-07T02:25:37;3.23;;;2.93;;
52744;SDS011;38637;49.984;20.426;2023-09-07T02:28:02;4.20;;;3.90;;
52744;SDS011;38637;49.984;20.426;2023-09-07T02:30:27;8.30;;;5.03;;
52744;SDS011;38637;49.984;20.426;2023-09-07T02:32:53;5.30;;;4.77;;
52744;SDS011;38637;49.984;20.426;2023-09-07T02:35:18;6.07;;;4.93;;
52744;SDS011;38637;49.984;20.426;2023-09-07T02:37:43;6.63;;;5.63;;
52744;SDS011;38637;49.984;20.426;2023-09-07T02:40:09;5.93;;;5.00;;
52744;SDS011;38637;49.984;20.426;2023-09-07T02:42:34;4.47;;;4.17;;
52744;SDS011;38637;49.984;20.426;2023-09-07T02:45:00;5.83;;;5.23;;
52744;SDS011;38637;49.984;20.426;2023-09-07T02:47:25;11.17;;;6.13;;
52744;SDS011;38637;49.984;20.426;2023-09-07T02:49:50;8.93;;;6.17;;
52744;SDS011;38637;49.984;20.426;2023-09-07T02:52:16;7.17;;;5.43;;
52744;SDS011;38637;49.984;20.426;2023-09-07T02:54:41;7.20;;;6.40;;
52744;SDS011;38637;49.984;20.426;2023-09-07T02:57:07;4.73;;;4.30;;
52744;SDS011;38637;49.984;20.426;2023-09-07T02:59:32;11.30;;;5.23;;
52744;SDS011;38637;49.984;20.426;2023-09-07T03:01:57;5.97;;;5.37;;
52744;SDS011;38637;49.984;20.426;2023-09-07T03:04:23;11.03;;;5.90;;
52744;SDS011;38637;49.984;20.426;2023-09-07T03:06:48;10.63;;;4.93;;
52744;SDS011;38637;49.984;20.426;2023-09-07T03:09:14;7.73;;;5.67;;
52744;SDS011;38637;49.984;20.426;2023-09-07T03:11:39;10.00;;;7.47;;
52744;SDS011;38637;49.984;20.426;2023-09-07T03:14:04;9.47;;;7.33;;
52744;SDS011;38637;49.984;20.426;2023-09-07T03:16:30;10.87;;;6.47;;
52744;SDS011;38637;49.984;20.426;2023-09-07T03:18:56;6.68;;;5.97;;
52744;SDS011;38637;49.984;20.426;2023-09-07T03:21:21;7.13;;;6.10;;
52744;SDS011;38637;49.984;20.426;2023-09-07T03:23:50;5.53;;;5.00;;
52744;SDS011;38637;49.984;20.426;2023-09-07T03:26:17;6.38;;;5.32;;
52744;SDS011;38637;49.984;20.426;2023-09-07T03:28:42;6.83;;;5.37;;
52744;SDS011;38637;49.984;20.426;2023-09-07T03:31:07;6.10;;;5.50;;
52744;SDS011;38637;49.984;20.426;2023-09-07T03:33:33;7.43;;;6.30;;
52744;SDS011;38637;49.984;20.426;2023-09-07T03:35:58;7.37;;;6.57;;
52744;SDS011;38637;49.984;20.426;2023-09-07T03:38:24;10.67;;;6.80;;
52744;SDS011;38637;49.984;20.426;2023-09-07T03:40:49;8.00;;;6.20;;
52744;SDS011;38637;49.984;20.426;2023-09-07T03:43:15;9.67;;;6.77;;
52744;SDS011;38637;49.984;20.426;2023-09-07T03:45:40;9.83;;;7.13;;
52744;SDS011;38637;49.984;20.426;2023-09-07T03:48:05;12.57;;;7.83;;
52744;SDS011;38637;49.984;20.426;2023-09-07T03:50:31;8.30;;;7.47;;
52744;SDS011;38637;49.984;20.426;2023-09-07T03:52:56;9.60;;;7.80;;
52744;SDS011;38637;49.984;20.426;2023-09-07T03:55:21;11.57;;;7.77;;
52744;SDS011;38637;49.984;20.426;2023-09-07T03:57:47;7.90;;;6.83;;
52744;SDS011;38637;49.984;20.426;2023-09-07T04:00:13;10.73;;;7.13;;
52744;SDS011;38637;49.984;20.426;2023-09-07T04:02:39;6.13;;;5.63;;
52744;SDS011;38637;49.984;20.426;2023-09-07T04:05:04;7.67;;;5.77;;
52744;SDS011;38637;49.984;20.426;2023-09-07T04:07:30;7.83;;;6.10;;
52744;SDS011;38637;49.984;20.426;2023-09-07T04:09:56;16.27;;;5.18;;
52744;SDS011;38637;49.984;20.426;2023-09-07T04:12:22;8.77;;;5.37;;
52744;SDS011;38637;49.984;20.426;2023-09-07T04:14:47;7.47;;;5.90;;
52744;SDS011;38637;49.984;20.426;2023-09-07T04:17:12;6.70;;;5.47;;
52744;SDS011;38637;49.984;20.426;2023-09-07T04:19:38;7.33;;;4.63;;
52744;SDS011;38637;49.984;20.426;2023-09-07T04:22:03;6.57;;;4.63;;
52744;SDS011;38637;49.984;20.426;2023-09-07T04:24:29;6.77;;;5.07;;
52744;SDS011;38637;49.984;20.426;2023-09-07T04:26:57;11.57;;;8.83;;
52744;SDS011;38637;49.984;20.426;2023-09-07T04:29:26;8.35;;;6.25;;
52744;SDS011;38637;49.984;20.426;2023-09-07T04:31:52;8.65;;;5.15;;
52744;SDS011;38637;49.984;20.426;2023-09-07T04:34:18;5.07;;;4.57;;
52744;SDS011;38637;49.984;20.426;2023-09-07T04:36:43;7.30;;;5.13;;
52744;SDS011;38637;49.984;20.426;2023-09-07T04:39:08;9.00;;;4.97;;
52744;SDS011;38637;49.984;20.426;2023-09-07T04:41:34;7.93;;;3.97;;
52744;SDS011;38637;49.984;20.426;2023-09-07T04:43:59;6.40;;;4.80;;
52744;SDS011;38637;49.984;20.426;2023-09-07T04:46:24;6.23;;;4.63;;
52744;SDS011;38637;49.984;20.426;2023-09-07T04:48:50;6.07;;;3.83;;
52744;SDS011;38637;49.984;20.426;2023-09-07T04:51:15;7.13;;;4.20;;
52744;SDS011;38637;49.984;20.426;2023-09-07T04:53:40;7.30;;;4.63;;
52744;SDS011;38637;49.984;20.426;2023-09-07T04:56:06;6.87;;;5.10;;
52744;SDS011;38637;49.984;20.426;2023-09-07T04:58:33;5.45;;;4.95;;
52744;SDS011;38637;49.984;20.426;2023-09-07T05:01:09;8.87;;;5.37;;
52744;SDS011;38637;49.984;20.426;2023-09-07T05:03:37;7.95;;;5.47;;
52744;SDS011;38637;49.984;20.426;2023-09-07T05:06:03;11.13;;;6.33;;
52744;SDS011;38637;49.984;20.426;2023-09-07T05:10:58;10.88;;;7.93;;
52744;SDS011;38637;49.984;20.426;2023-09-07T05:13:25;8.65;;;7.85;;
52744;SDS011;38637;49.984;20.426;2023-09-07T05:15:51;8.13;;;7.43;;
52744;SDS011;38637;49.984;20.426;2023-09-07T05:20:43;10.65;;;8.27;;
52744;SDS011;38637;49.984;20.426;2023-09-07T05:23:17;9.55;;;7.57;;
52744;SDS011;38637;49.984;20.426;2023-09-07T05:25:50;12.63;;;10.60;;
52744;SDS011;38637;49.984;20.426;2023-09-07T05:28:17;12.63;;;11.18;;
52744;SDS011;38637;49.984;20.426;2023-09-07T05:30:43;26.70;;;15.32;;
52744;SDS011;38637;49.984;20.426;2023-09-07T05:33:09;20.73;;;14.73;;
52744;SDS011;38637;49.984;20.426;2023-09-07T05:35:35;25.65;;;13.40;;
52744;SDS011;38637;49.984;20.426;2023-09-07T05:38:02;18.90;;;12.73;;
52744;SDS011;38637;49.984;20.426;2023-09-07T05:40:28;19.90;;;12.02;;
52744;SDS011;38637;49.984;20.426;2023-09-07T05:42:53;18.67;;;12.70;;
52744;SDS011;38637;49.984;20.426;2023-09-07T05:45:18;30.30;;;12.90;;
52744;SDS011;38637;49.984;20.426;2023-09-07T05:47:44;19.20;;;13.70;;
52744;SDS011;38637;49.984;20.426;2023-09-07T05:50:09;26.50;;;13.57;;
52744;SDS011;38637;49.984;20.426;2023-09-07T05:52:34;21.80;;;13.87;;
52744;SDS011;38637;49.984;20.426;2023-09-07T05:55:00;15.93;;;12.67;;
52744;SDS011;38637;49.984;20.426;2023-09-07T05:57:25;18.17;;;12.57;;
52744;SDS011;38637;49.984;20.426;2023-09-07T05:59:51;16.67;;;12.73;;
52744;SDS011;38637;49.984;20.426;2023-09-07T06:02:16;20.63;;;14.10;;
52744;SDS011;38637;49.984;20.426;2023-09-07T06:04:41;21.27;;;14.30;;
52744;SDS011;38637;49.984;20.426;2023-09-07T06:07:06;23.20;;;16.10;;
52744;SDS011;38637;49.984;20.426;2023-09-07T06:09:32;20.20;;;15.77;;
52744;SDS011;38637;49.984;20.426;2023-09-07T06:11:57;19.60;;;16.03;;
52744;SDS011;38637;49.984;20.426;2023-09-07T06:14:22;31.87;;;17.83;;
52744;SDS011;38637;49.984;20.426;2023-09-07T06:16:48;22.43;;;18.20;;
52744;SDS011;38637;49.984;20.426;2023-09-07T06:19:13;23.97;;;16.07;;
52744;SDS011;38637;49.984;20.426;2023-09-07T06:21:38;21.27;;;15.57;;
52744;SDS011;38637;49.984;20.426;2023-09-07T06:24:04;21.63;;;16.43;;
52744;SDS011;38637;49.984;20.426;2023-09-07T06:26:31;23.20;;;15.52;;
52744;SDS011;38637;49.984;20.426;2023-09-07T06:28:56;21.70;;;15.63;;
52744;SDS011;38637;49.984;20.426;2023-09-07T06:31:22;19.80;;;14.10;;
52744;SDS011;38637;49.984;20.426;2023-09-07T06:33:47;20.03;;;12.87;;
52744;SDS011;38637;49.984;20.426;2023-09-07T06:36:13;12.63;;;10.77;;
52744;SDS011;38637;49.984;20.426;2023-09-07T06:38:38;21.10;;;13.87;;
52744;SDS011;38637;49.984;20.426;2023-09-07T06:41:03;21.33;;;14.10;;
52744;SDS011;38637;49.984;20.426;2023-09-07T06:43:29;18.02;;;13.68;;
52744;SDS011;38637;49.984;20.426;2023-09-07T06:46:01;18.38;;;12.48;;
52744;SDS011;38637;49.984;20.426;2023-09-07T06:48:33;16.58;;;10.30;;
52744;SDS011;38637;49.984;20.426;2023-09-07T06:51:03;16.52;;;11.98;;
52744;SDS011;38637;49.984;20.426;2023-09-07T06:53:29;15.63;;;11.80;;
52744;SDS011;38637;49.984;20.426;2023-09-07T06:56:02;16.95;;;11.95;;
52744;SDS011;38637;49.984;20.426;2023-09-07T06:58:28;13.70;;;10.95;;
52744;SDS011;38637;49.984;20.426;2023-09-07T07:01:00;11.90;;;10.60;;
52744;SDS011;38637;49.984;20.426;2023-09-07T07:03:29;14.45;;;11.07;;
52744;SDS011;38637;49.984;20.426;2023-09-07T07:05:55;13.32;;;9.68;;
52744;SDS011;38637;49.984;20.426;2023-09-07T07:08:21;11.68;;;10.45;;
52744;SDS011;38637;49.984;20.426;2023-09-07T07:10:47;14.43;;;10.55;;
52744;SDS011;38637;49.984;20.426;2023-09-07T07:13:12;15.40;;;10.23;;
52744;SDS011;38637;49.984;20.426;2023-09-07T07:15:37;12.73;;;10.10;;
52744;SDS011;38637;49.984;20.426;2023-09-07T07:18:03;11.60;;;9.60;;
52744;SDS011;38637;49.984;20.426;2023-09-07T07:20:33;16.45;;;9.07;;
52744;SDS011;38637;49.984;20.426;2023-09-07T07:23:06;12.98;;;9.27;;
52744;SDS011;38637;49.984;20.426;2023-09-07T07:25:32;14.10;;;9.17;;
52744;SDS011;38637;49.984;20.426;2023-09-07T07:28:02;12.25;;;9.60;;
52744;SDS011;38637;49.984;20.426;2023-09-07T07:30:30;11.23;;;9.07;;
52744;SDS011;38637;49.984;20.426;2023-09-07T07:32:59;12.95;;;8.40;;
52744;SDS011;38637;49.984;20.426;2023-09-07T07:35:24;9.77;;;8.77;;
52744;SDS011;38637;49.984;20.426;2023-09-07T07:37:50;11.07;;;8.23;;
52744;SDS011;38637;49.984;20.426;2023-09-07T07:40:16;9.37;;;8.40;;
52744;SDS011;38637;49.984;20.426;2023-09-07T07:42:43;10.88;;;8.65;;
52744;SDS011;38637;49.984;20.426;2023-09-07T07:45:08;10.98;;;9.70;;
52744;SDS011;38637;49.984;20.426;2023-09-07T07:47:34;11.75;;;8.60;;
52744;SDS011;38637;49.984;20.426;2023-09-07T07:49:59;13.63;;;9.77;;
52744;SDS011;38637;49.984;20.426;2023-09-07T07:52:24;11.07;;;9.90;;
52744;SDS011;38637;49.984;20.426;2023-09-07T07:54:50;15.37;;;9.03;;
52744;SDS011;38637;49.984;20.426;2023-09-07T07:57:15;10.40;;;9.27;;
52744;SDS011;38637;49.984;20.426;2023-09-07T07:59:40;15.27;;;9.83;;
52744;SDS011;38637;49.984;20.426;2023-09-07T08:02:06;12.00;;;9.87;;
52744;SDS011;38637;49.984;20.426;2023-09-07T08:04:32;11.50;;;9.57;;
52744;SDS011;38637;49.984;20.426;2023-09-07T08:06:58;13.82;;;10.20;;
52744;SDS011;38637;49.984;20.426;2023-09-07T08:09:28;18.27;;;9.82;;
52744;SDS011;38637;49.984;20.426;2023-09-07T08:11:54;11.95;;;9.48;;
52744;SDS011;38637;49.984;20.426;2023-09-07T08:14:20;14.73;;;9.07;;
52744;SDS011;38637;49.984;20.426;2023-09-07T08:16:47;13.48;;;10.35;;
52744;SDS011;38637;49.984;20.426;2023-09-07T08:19:12;14.60;;;9.07;;
52744;SDS011;38637;49.984;20.426;2023-09-07T08:21:39;11.57;;;10.35;;
52744;SDS011;38637;49.984;20.426;2023-09-07T08:24:07;14.52;;;9.75;;
52744;SDS011;38637;49.984;20.426;2023-09-07T08:26:32;9.73;;;8.73;;
52744;SDS011;38637;49.984;20.426;2023-09-07T08:28:57;11.27;;;8.30;;
52744;SDS011;38637;49.984;20.426;2023-09-07T08:31:23;12.13;;;8.07;;
52744;SDS011;38637;49.984;20.426;2023-09-07T08:33:48;11.23;;;8.93;;
52744;SDS011;38637;49.984;20.426;2023-09-07T08:36:16;10.70;;;8.50;;
52744;SDS011;38637;49.984;20.426;2023-09-07T08:38:47;9.15;;;8.25;;
52744;SDS011;38637;49.984;20.426;2023-09-07T08:41:13;10.60;;;7.88;;
52744;SDS011;38637;49.984;20.426;2023-09-07T08:43:40;9.15;;;8.20;;
52744;SDS011;38637;49.984;20.426;2023-09-07T08:46:15;11.13;;;7.90;;
52744;SDS011;38637;49.984;20.426;2023-09-07T08:48:43;10.85;;;8.18;;
52744;SDS011;38637;49.984;20.426;2023-09-07T08:51:12;11.88;;;7.05;;
52744;SDS011;38637;49.984;20.426;2023-09-07T08:53:38;11.50;;;6.93;;
52744;SDS011;38637;49.984;20.426;2023-09-07T08:56:04;9.68;;;6.95;;
52744;SDS011;38637;49.984;20.426;2023-09-07T08:58:31;10.48;;;6.65;;
52744;SDS011;38637;49.984;20.426;2023-09-07T09:00:57;6.83;;;6.13;;
52744;SDS011;38637;49.984;20.426;2023-09-07T09:03:22;11.50;;;7.05;;
52744;SDS011;38637;49.984;20.426;2023-09-07T09:05:48;8.80;;;5.90;;
52744;SDS011;38637;49.984;20.426;2023-09-07T09:08:15;6.38;;;4.40;;
52744;SDS011;38637;49.984;20.426;2023-09-07T09:10:45;9.57;;;5.82;;
52744;SDS011;38637;49.984;20.426;2023-09-07T09:13:10;9.07;;;5.43;;
52744;SDS011;38637;49.984;20.426;2023-09-07T09:15:36;8.43;;;5.70;;
52744;SDS011;38637;49.984;20.426;2023-09-07T09:18:11;9.50;;;5.13;;
52744;SDS011;38637;49.984;20.426;2023-09-07T09:20:38;6.90;;;5.45;;
52744;SDS011;38637;49.984;20.426;2023-09-07T09:23:04;5.85;;;5.05;;
52744;SDS011;38637;49.984;20.426;2023-09-07T09:25:30;11.20;;;5.13;;
52744;SDS011;38637;49.984;20.426;2023-09-07T09:30:21;6.82;;;5.00;;
52744;SDS011;38637;49.984;20.426;2023-09-07T09:32:47;5.57;;;4.70;;
52744;SDS011;38637;49.984;20.426;2023-09-07T09:35:13;5.30;;;4.30;;
52744;SDS011;38637;49.984;20.426;2023-09-07T09:37:45;7.20;;;5.00;;
52744;SDS011;38637;49.984;20.426;2023-09-07T09:40:16;8.65;;;5.05;;
52744;SDS011;38637;49.984;20.426;2023-09-07T09:42:42;22.47;;;4.87;;
52744;SDS011;38637;49.984;20.426;2023-09-07T09:45:08;6.32;;;4.60;;
52744;SDS011;38637;49.984;20.426;2023-09-07T09:47:39;8.73;;;4.38;;
52744;SDS011;38637;49.984;20.426;2023-09-07T09:50:08;7.55;;;4.47;;
52744;SDS011;38637;49.984;20.426;2023-09-07T09:52:35;13.32;;;4.38;;
52744;SDS011;38637;49.984;20.426;2023-09-07T09:55:03;6.45;;;4.43;;
52744;SDS011;38637;49.984;20.426;2023-09-07T09:57:30;6.82;;;4.53;;
52744;SDS011;38637;49.984;20.426;2023-09-07T09:59:57;6.63;;;4.35;;
52744;SDS011;38637;49.984;20.426;2023-09-07T10:02:23;6.00;;;4.20;;
52744;SDS011;38637;49.984;20.426;2023-09-07T10:04:49;6.13;;;3.63;;
52744;SDS011;38637;49.984;20.426;2023-09-07T10:07:16;8.27;;;3.97;;
52744;SDS011;38637;49.984;20.426;2023-09-07T10:09:44;4.85;;;3.85;;
52744;SDS011;38637;49.984;20.426;2023-09-07T10:12:12;5.67;;;4.03;;
52744;SDS011;38637;49.984;20.426;2023-09-07T10:14:40;9.05;;;4.05;;
52744;SDS011;38637;49.984;20.426;2023-09-07T10:17:07;5.85;;;4.22;;
52744;SDS011;38637;49.984;20.426;2023-09-07T10:19:34;4.65;;;4.13;;
52744;SDS011;38637;49.984;20.426;2023-09-07T10:22:02;4.75;;;3.63;;
52744;SDS011;38637;49.984;20.426;2023-09-07T10:24:32;7.80;;;3.47;;
52744;SDS011;38637;49.984;20.426;2023-09-07T10:27:02;5.53;;;3.60;;
52744;SDS011;38637;49.984;20.426;2023-09-07T10:29:45;4.70;;;3.75;;
52744;SDS011;38637;49.984;20.426;2023-09-07T10:32:14;7.05;;;3.97;;
52744;SDS011;38637;49.984;20.426;2023-09-07T10:34:41;5.80;;;3.83;;
52744;SDS011;38637;49.984;20.426;2023-09-07T10:37:10;5.82;;;4.00;;
52744;SDS011;38637;49.984;20.426;2023-09-07T10:39:38;5.18;;;4.10;;
52744;SDS011;38637;49.984;20.426;2023-09-07T10:42:04;5.22;;;3.63;;
52744;SDS011;38637;49.984;20.426;2023-09-07T10:44:30;4.07;;;3.67;;
52744;SDS011;38637;49.984;20.426;2023-09-07T10:46:58;8.40;;;4.63;;
52744;SDS011;38637;49.984;20.426;2023-09-07T10:49:25;6.95;;;4.47;;
52744;SDS011;38637;49.984;20.426;2023-09-07T10:51:50;7.83;;;4.07;;
52744;SDS011;38637;49.984;20.426;2023-09-07T10:54:16;3.90;;;3.50;;
52744;SDS011;38637;49.984;20.426;2023-09-07T10:56:43;8.20;;;4.80;;
52744;SDS011;38637;49.984;20.426;2023-09-07T10:59:09;7.85;;;4.22;;
52744;SDS011;38637;49.984;20.426;2023-09-07T11:01:35;10.03;;;5.40;;
52744;SDS011;38637;49.984;20.426;2023-09-07T11:04:00;8.70;;;4.83;;
52744;SDS011;38637;49.984;20.426;2023-09-07T11:06:26;5.43;;;4.47;;
52744;SDS011;38637;49.984;20.426;2023-09-07T11:08:51;6.00;;;4.53;;
52744;SDS011;38637;49.984;20.426;2023-09-07T11:11:17;6.50;;;4.97;;
52744;SDS011;38637;49.984;20.426;2023-09-07T11:13:42;6.13;;;4.50;;
52744;SDS011;38637;49.984;20.426;2023-09-07T11:16:08;6.15;;;3.83;;
52744;SDS011;38637;49.984;20.426;2023-09-07T11:18:34;6.28;;;4.43;;
52744;SDS011;38637;49.984;20.426;2023-09-07T11:21:03;5.25;;;3.90;;
52744;SDS011;38637;49.984;20.426;2023-09-07T11:23:32;6.07;;;3.67;;
52744;SDS011;38637;49.984;20.426;2023-09-07T11:26:04;4.43;;;4.03;;
52744;SDS011;38637;49.984;20.426;2023-09-07T11:28:30;7.72;;;4.15;;
52744;SDS011;38637;49.984;20.426;2023-09-07T11:30:56;7.38;;;4.15;;
52744;SDS011;38637;49.984;20.426;2023-09-07T11:33:22;5.03;;;4.07;;
52744;SDS011;38637;49.984;20.426;2023-09-07T11:35:47;4.93;;;4.32;;
52744;SDS011;38637;49.984;20.426;2023-09-07T11:38:14;5.18;;;4.10;;
52744;SDS011;38637;49.984;20.426;2023-09-07T11:40:40;6.00;;;4.82;;
52744;SDS011;38637;49.984;20.426;2023-09-07T11:43:13;6.70;;;4.97;;
52744;SDS011;38637;49.984;20.426;2023-09-07T11:45:43;12.95;;;5.07;;
52744;SDS011;38637;49.984;20.426;2023-09-07T11:48:09;6.43;;;3.80;;
52744;SDS011;38637;49.984;20.426;2023-09-07T11:50:35;5.88;;;4.63;;
52744;SDS011;38637;49.984;20.426;2023-09-07T11:55:27;3.65;;;3.30;;
52744;SDS011;38637;49.984;20.426;2023-09-07T11:57:52;5.30;;;3.73;;
52744;SDS011;38637;49.984;20.426;2023-09-07T12:00:18;4.05;;;3.40;;
52744;SDS011;38637;49.984;20.426;2023-09-07T12:02:44;3.78;;;2.53;;
52744;SDS011;38637;49.984;20.426;2023-09-07T12:05:09;4.00;;;2.47;;
52744;SDS011;38637;49.984;20.426;2023-09-07T12:07:38;2.97;;;2.67;;
52744;SDS011;38637;49.984;20.426;2023-09-07T12:10:03;3.05;;;2.75;;
52744;SDS011;38637;49.984;20.426;2023-09-07T12:12:29;3.35;;;3.05;;
52744;SDS011;38637;49.984;20.426;2023-09-07T12:14:54;3.73;;;2.87;;
52744;SDS011;38637;49.984;20.426;2023-09-07T12:17:21;3.97;;;2.80;;
52744;SDS011;38637;49.984;20.426;2023-09-07T12:19:47;2.90;;;2.45;;
52744;SDS011;38637;49.984;20.426;2023-09-07T12:22:12;5.07;;;2.60;;
52744;SDS011;38637;49.984;20.426;2023-09-07T12:24:38;4.13;;;2.77;;
52744;SDS011;38637;49.984;20.426;2023-09-07T12:27:03;3.60;;;2.93;;
52744;SDS011;38637;49.984;20.426;2023-09-07T12:29:29;3.13;;;2.83;;
52744;SDS011;38637;49.984;20.426;2023-09-07T12:31:54;6.50;;;3.27;;
52744;SDS011;38637;49.984;20.426;2023-09-07T12:34:19;5.17;;;3.63;;
52744;SDS011;38637;49.984;20.426;2023-09-07T12:36:45;3.57;;;2.83;;
52744;SDS011;38637;49.984;20.426;2023-09-07T12:39:10;6.83;;;3.47;;
52744;SDS011;38637;49.984;20.426;2023-09-07T12:41:37;4.38;;;3.10;;
52744;SDS011;38637;49.984;20.426;2023-09-07T12:44:03;4.47;;;3.63;;
52744;SDS011;38637;49.984;20.426;2023-09-07T12:46:28;3.70;;;2.60;;
52744;SDS011;38637;49.984;20.426;2023-09-07T12:48:53;4.33;;;2.67;;
52744;SDS011;38637;49.984;20.426;2023-09-07T12:51:19;5.73;;;3.20;;
52744;SDS011;38637;49.984;20.426;2023-09-07T12:53:44;3.90;;;3.40;;
52744;SDS011;38637;49.984;20.426;2023-09-07T12:56:09;4.87;;;3.20;;
52744;SDS011;38637;49.984;20.426;2023-09-07T12:58:35;4.37;;;3.13;;
52744;SDS011;38637;49.984;20.426;2023-09-07T13:01:00;4.97;;;3.00;;
52744;SDS011;38637;49.984;20.426;2023-09-07T13:03:25;3.80;;;2.93;;
52744;SDS011;38637;49.984;20.426;2023-09-07T13:05:51;4.53;;;2.90;;
52744;SDS011;38637;49.984;20.426;2023-09-07T13:08:16;10.43;;;3.30;;
52744;SDS011;38637;49.984;20.426;2023-09-07T13:10:41;4.23;;;2.70;;
52744;SDS011;38637;49.984;20.426;2023-09-07T13:13:07;3.77;;;3.33;;
52744;SDS011;38637;49.984;20.426;2023-09-07T13:15:32;4.10;;;3.27;;
52744;SDS011;38637;49.984;20.426;2023-09-07T13:17:58;5.18;;;2.65;;
52744;SDS011;38637;49.984;20.426;2023-09-07T13:20:23;5.83;;;3.40;;
52744;SDS011;38637;49.984;20.426;2023-09-07T13:22:49;3.30;;;3.00;;
52744;SDS011;38637;49.984;20.426;2023-09-07T13:25:14;4.00;;;3.20;;
52744;SDS011;38637;49.984;20.426;2023-09-07T13:27:39;4.43;;;3.33;;
52744;SDS011;38637;49.984;20.426;2023-09-07T13:30:05;3.80;;;3.30;;
52744;SDS011;38637;49.984;20.426;2023-09-07T13:32:33;4.20;;;3.80;;
52744;SDS011;38637;49.984;20.426;2023-09-07T13:34:59;5.97;;;3.10;;
52744;SDS011;38637;49.984;20.426;2023-09-07T13:37:24;6.17;;;2.93;;
52744;SDS011;38637;49.984;20.426;2023-09-07T13:39:49;5.93;;;4.00;;
52744;SDS011;38637;49.984;20.426;2023-09-07T13:42:15;4.30;;;3.30;;
52744;SDS011;38637;49.984;20.426;2023-09-07T13:44:40;4.60;;;3.50;;
52744;SDS011;38637;49.984;20.426;2023-09-07T13:47:06;8.23;;;3.60;;
52744;SDS011;38637;49.984;20.426;2023-09-07T13:49:33;6.72;;;3.55;;
52744;SDS011;38637;49.984;20.426;2023-09-07T13:51:58;3.83;;;3.33;;
52744;SDS011;38637;49.984;20.426;2023-09-07T13:54:23;4.57;;;3.17;;
52744;SDS011;38637;49.984;20.426;2023-09-07T13:56:49;3.80;;;3.50;;
52744;SDS011;38637;49.984;20.426;2023-09-07T13:59:14;6.03;;;3.40;;
52744;SDS011;38637;49.984;20.426;2023-09-07T14:01:39;4.07;;;2.83;;
52744;SDS011;38637;49.984;20.426;2023-09-07T14:04:05;6.17;;;3.73;;
52744;SDS011;38637;49.984;20.426;2023-09-07T14:06:30;4.00;;;3.05;;
52744;SDS011;38637;49.984;20.426;2023-09-07T14:08:55;5.97;;;3.67;;
52744;SDS011;38637;49.984;20.426;2023-09-07T14:11:21;4.70;;;3.20;;
52744;SDS011;38637;49.984;20.426;2023-09-07T14:13:47;5.70;;;3.65;;
52744;SDS011;38637;49.984;20.426;2023-09-07T14:16:16;6.93;;;3.75;;
52744;SDS011;38637;49.984;20.426;2023-09-07T14:18:45;5.20;;;3.10;;
52744;SDS011;38637;49.984;20.426;2023-09-07T14:21:12;5.90;;;3.70;;
52744;SDS011;38637;49.984;20.426;2023-09-07T14:23:38;4.15;;;3.15;;
52744;SDS011;38637;49.984;20.426;2023-09-07T14:26:03;7.50;;;3.10;;
52744;SDS011;38637;49.984;20.426;2023-09-07T14:28:29;6.67;;;3.43;;
52744;SDS011;38637;49.984;20.426;2023-09-07T14:30:54;6.10;;;3.40;;
52744;SDS011;38637;49.984;20.426;2023-09-07T14:33:19;4.17;;;2.97;;
52744;SDS011;38637;49.984;20.426;2023-09-07T14:35:45;3.37;;;3.07;;
52744;SDS011;38637;49.984;20.426;2023-09-07T14:38:11;3.55;;;2.90;;
52744;SDS011;38637;49.984;20.426;2023-09-07T14:40:37;3.60;;;2.63;;